Time;durP1;ratioP1;P1;durP2;ratioP2;P2;SDS_P1;SDS_P2;PMS_P1;PMS_P2;Temp;Humidity;BMP_temperature;BMP_pressure;BME280_temperature;BME280_humidity;BME280_pressure;Samples;Min_cycle;Max_cycle;Signal;HPM_P1;HPM_P2
2022/05/26 00:01:42;;;;;;;14.37;6.07;;;;;;;13.20;100.00;101590.78;5003233;28;20631;-74
2022/05/26 00:04:07;;;;;;;13.40;6.80;;;;;;;13.50;100.00;101618.31;5000341;28;20196;-74
2022/05/26 00:06:33;;;;;;;15.40;6.53;;;;;;;13.56;100.00;101624.78;5000999;28;20671;-73
2022/05/26 00:08:59;;;;;;;13.07;5.87;;;;;;;13.59;100.00;101635.16;5001881;28;20704;-73
2022/05/26 00:11:28;;;;;;;11.37;6.47;;;;;;;13.61;100.00;101641.19;5000864;28;20195;-73
2022/05/26 00:13:54;;;;;;;13.80;6.43;;;;;;;13.56;100.00;101616.69;5000040;28;20450;-73
2022/05/26 00:16:19;;;;;;;8.30;5.60;;;;;;;13.46;100.00;101602.78;4998979;28;20445;-73
2022/05/26 00:18:45;;;;;;;15.03;6.90;;;;;;;13.02;100.00;101542.81;4999015;28;20846;-73
2022/05/26 00:21:11;;;;;;;14.57;6.40;;;;;;;13.53;100.00;101626.00;5001137;28;20193;-73
2022/05/26 00:23:36;;;;;;;10.10;6.20;;;;;;;13.55;100.00;101628.53;5001335;28;20185;-73
2022/05/26 00:26:02;;;;;;;11.70;5.70;;;;;;;13.59;100.00;101628.94;4999510;28;20185;-72
2022/05/26 00:28:27;;;;;;;12.97;6.77;;;;;;;13.62;100.00;101636.63;5000285;28;20227;-74
2022/05/26 00:30:53;;;;;;;13.20;6.50;;;;;;;13.56;100.00;101627.47;5002945;28;20417;-74
2022/05/26 00:33:19;;;;;;;10.63;5.67;;;;;;;13.22;100.00;101561.78;5001697;28;20614;-74
2022/05/26 00:35:45;;;;;;;14.40;6.57;;;;;;;13.41;100.00;101611.44;4996063;28;20199;-73
2022/05/26 00:38:13;;;;;;;10.40;6.40;;;;;;;13.61;100.00;101634.97;4999867;28;20440;-73
2022/05/26 00:40:40;;;;;;;11.53;5.77;;;;;;;13.60;100.00;101623.38;4994001;28;20546;-73
2022/05/26 00:43:07;;;;;;;13.13;5.93;;;;;;;13.05;100.00;101563.97;4998553;28;20432;-73
2022/05/26 00:45:51;;;;;;;10.63;6.10;;;;;;;13.36;100.00;101616.59;4998296;28;20470;-73
2022/05/26 00:48:21;;;;;;;9.60;5.43;;;;;;;13.44;100.00;101618.31;4997381;28;20472;-73
2022/05/26 00:50:59;;;;;;;16.17;6.60;;;;;;;13.36;100.00;101605.81;5001102;28;20459;-73
2022/05/26 00:53:37;;;;;;;8.50;5.77;;;;;;;13.42;100.00;101618.47;4994332;28;21098;-73
2022/05/26 00:56:15;;;;;;;9.90;5.60;;;;;;;13.42;100.00;101614.97;4999008;28;20444;-73
2022/05/26 00:58:46;;;;;;;10.40;4.63;;;;;;;13.67;100.00;101642.28;4994931;28;20453;-73
2022/05/26 01:01:12;;;;;;;11.83;4.97;;;;;;;13.15;100.00;101550.13;4997554;28;20435;-74
2022/05/26 01:03:45;;;;;;;17.40;5.80;;;;;;;13.50;100.00;101622.88;5000475;28;20428;-73
2022/05/26 01:06:16;;;;;;;13.70;5.37;;;;;;;13.76;100.00;101638.38;4999865;28;20520;-73
2022/05/26 01:08:58;;;;;;;14.87;5.97;;;;;;;13.70;100.00;101644.56;4995760;28;20472;-74
2022/05/26 01:11:25;;;;;;;23.23;6.40;;;;;;;13.51;100.00;101617.31;5000004;28;20444;-74
2022/05/26 01:13:58;;;;;;;15.90;5.80;;;;;;;13.69;100.00;101646.44;4997393;28;20436;-75
2022/05/26 01:16:50;;;;;;;18.20;5.73;;;;;;;13.54;100.00;101616.09;4998019;28;21546;-75
2022/05/26 01:19:46;;;;;;;14.33;5.43;;;;;;;13.69;100.00;101645.59;4994286;28;20463;-75
2022/05/26 01:22:21;;;;;;;19.03;6.07;;;;;;;13.71;100.00;101641.69;4995301;28;20880;-76
2022/05/26 01:25:20;;;;;;;19.17;6.73;;;;;;;13.77;100.00;101656.22;4998311;28;21038;-76
2022/05/26 01:28:15;;;;;;;15.53;5.50;;;;;;;13.75;100.00;101648.31;4995718;28;20810;-76
2022/05/26 01:30:56;;;;;;;17.63;5.33;;;;;;;13.26;100.00;101597.25;4995727;28;21152;-75
2022/05/26 01:33:45;;;;;;;19.57;5.67;;;;;;;13.38;100.00;101598.38;4996829;28;20445;-76
2022/05/26 01:36:42;;;;;;;15.37;4.77;;;;;;;13.71;100.00;101651.59;4996880;28;20498;-76
2022/05/26 01:39:37;;;;;;;15.00;4.40;;;;;;;13.77;100.00;101646.28;4992048;28;20988;-75
2022/05/26 01:42:08;;;;;;;17.47;4.80;;;;;;;13.78;100.00;101647.94;4995286;28;20531;-76
2022/05/26 01:44:52;;;;;;;20.80;5.30;;;;;;;13.74;100.00;101637.72;4996245;28;20486;-75
2022/05/26 01:47:46;;;;;;;14.00;4.73;;;;;;;13.79;100.00;101651.44;4994877;28;20920;-75
2022/05/26 01:50:23;;;;;;;16.70;4.60;;;;;;;13.70;100.00;101652.66;5007084;22;20487;-89
2022/05/26 01:53:08;;;;;;;16.60;4.80;;;;;;;13.67;100.00;101651.19;5004465;28;20957;-89
2022/05/26 01:56:03;;;;;;;15.13;4.57;;;;;;;13.41;100.00;101589.06;4998028;28;20527;-90
2022/05/26 01:58:40;;;;;;;20.20;4.87;;;;;;;13.83;100.00;101659.97;4999718;28;20443;-88
2022/05/26 02:01:13;;;;;;;18.97;4.63;;;;;;;13.81;100.00;101645.88;4998697;28;20469;-92
2022/05/26 02:03:41;;;;;;;12.80;4.70;;;;;;;13.63;100.00;101628.38;4988401;28;20452;-93
2022/05/26 02:06:15;;;;;;;16.30;4.80;;;;;;;13.69;100.00;101643.75;4986998;28;20483;-90
2022/05/26 02:09:09;;;;;;;26.40;4.93;;;;;;;13.60;100.00;101619.81;5002713;28;20557;-91
2022/05/26 02:11:44;;;;;;;17.43;4.20;;;;;;;13.88;100.00;101649.41;4980703;28;20539;-91
2022/05/26 02:14:18;;;;;;;14.63;4.93;;;;;;;13.83;100.00;101666.22;4999750;28;20452;-92
2022/05/26 02:16:51;;;;;;;14.40;4.70;;;;;;;13.40;100.00;101587.41;4984251;28;20448;-89
2022/05/26 02:19:28;;;;;;;14.10;4.37;;;;;;;13.20;100.00;101558.44;5000979;28;20448;-92
2022/05/26 02:22:02;;;;;;;22.47;4.87;;;;;;;13.81;100.00;101662.03;4986453;28;20555;-92
2022/05/26 02:24:41;;;;;;;21.37;5.00;;;;;;;13.65;100.00;101633.53;5000590;28;20554;-89
2022/05/26 02:27:07;;;;;;;13.13;3.90;;;;;;;13.41;100.00;101583.66;4985454;28;20428;-85
2022/05/26 02:29:51;;;;;;;14.20;4.27;;;;;;;13.70;100.00;101634.59;4982614;28;20469;-89
2022/05/26 02:32:19;;;;;;;18.37;5.17;;;;;;;13.12;100.00;101537.06;4986922;28;20681;-88
2022/05/26 02:34:48;;;;;;;9.10;3.70;;;;;;;13.21;100.00;101557.41;5004188;28;20898;-92
2022/05/26 02:37:14;;;;;;;21.67;4.20;;;;;;;13.77;100.00;101630.09;4981591;28;20452;-89
2022/05/26 02:39:39;;;;;;;12.90;3.70;;;;;;;13.53;100.00;101614.41;4986821;28;20433;-91
2022/05/26 02:42:06;;;;;;;12.40;3.70;;;;;;;13.41;100.00;101572.88;4992785;28;20535;-88
2022/05/26 02:44:33;;;;;;;15.33;4.03;;;;;;;13.81;100.00;101641.31;5003251;28;20957;-89
2022/05/26 02:47:08;;;;;;;15.93;3.83;;;;;;;13.69;100.00;101635.66;4984705;28;20437;-93
2022/05/26 02:50:02;;;;;;;12.17;3.67;;;;;;;13.73;100.00;101646.84;4998121;28;20472;-92
2022/05/26 02:52:43;;;;;;;15.90;4.80;;;;;;;13.81;100.00;101643.16;4982609;28;20626;-90
2022/05/26 02:55:23;;;;;;;11.90;3.47;;;;;;;13.76;100.00;101652.69;4981698;28;20447;-92
2022/05/26 02:58:06;;;;;;;10.97;3.43;;;;;;;13.07;100.00;101553.78;4983696;28;20449;-93
2022/05/26 03:00:43;;;;;;;18.97;4.43;;;;;;;13.67;100.00;101642.28;5001537;28;20457;-90
2022/05/26 03:03:18;;;;;;;12.07;3.10;;;;;;;13.67;100.00;101647.66;4985896;28;20472;-90
2022/05/26 03:06:03;;;;;;;12.30;3.63;;;;;;;13.64;100.00;101651.59;4984975;28;20467;-92
2022/05/26 03:08:31;;;;;;;14.20;3.63;;;;;;;13.67;100.00;101651.19;4984482;28;21028;-93
2022/05/26 03:11:09;;;;;;;10.47;2.83;;;;;;;13.60;100.00;101646.78;4994159;28;20539;-89
2022/05/26 03:13:36;;;;;;;10.77;3.50;;;;;;;13.62;100.00;101653.63;4984125;28;20534;-86
2022/05/26 03:16:02;;;;;;;8.70;2.97;;;;;;;13.32;100.00;101604.56;5002390;28;20454;-88
2022/05/26 03:18:27;;;;;;;10.37;3.40;;;;;;;13.38;100.00;101635.25;4990309;28;21019;-89
2022/05/26 03:20:53;;;;;;;11.93;3.40;;;;;;;13.04;100.00;101586.50;4986516;28;20468;-88
2022/05/26 03:23:18;;;;;;;16.63;3.67;;;;;;;13.46;100.00;101662.06;4994577;28;20186;-89
2022/05/26 03:25:46;;;;;;;11.67;2.87;;;;;;;13.64;100.00;101672.31;4984786;28;20221;-89
2022/05/26 03:28:13;;;;;;;14.50;4.50;;;;;;;13.49;100.00;101656.28;4988977;28;20296;-89
2022/05/26 03:30:39;;;;;;;19.53;4.47;;;;;;;12.92;100.00;101558.47;5003115;28;20464;-90
2022/05/26 03:33:04;;;;;;;18.13;3.63;;;;;;;13.01;100.00;101575.31;4984385;28;20959;-93
2022/05/26 03:40:58;;;;;;;14.77;3.70;;;;;;;13.37;100.00;101650.59;4982934;28;20553;-89
2022/05/26 03:43:32;;;;;;;15.70;4.20;;;;;;;13.60;100.00;101679.13;4983612;28;21911;-92
2022/05/26 03:45:59;;;;;;;14.83;3.33;;;;;;;13.07;100.00;101602.28;4982816;28;20197;-89
2022/05/26 03:48:24;;;;;;;15.43;4.07;;;;;;;13.32;100.00;101647.66;4986412;28;20468;-90
2022/05/26 03:50:50;;;;;;;14.47;3.83;;;;;;;12.87;100.00;101612.06;4980160;28;21036;-90
2022/05/26 03:53:15;;;;;;;9.37;3.57;;;;;;;12.82;100.00;101577.66;4983502;28;20194;-89
2022/05/26 03:55:40;;;;;;;15.83;4.10;;;;;;;12.70;100.00;101555.00;4982051;28;20830;-88
2022/05/26 03:58:06;;;;;;;12.33;3.60;;;;;;;12.76;100.00;101591.91;4981974;28;20275;-86
2022/05/26 04:00:32;;;;;;;13.20;3.40;;;;;;;12.93;100.00;101605.94;4982719;28;20339;-88
2022/05/26 04:02:57;;;;;;;16.17;3.80;;;;;;;12.90;100.00;101576.66;4983291;28;20209;-89
2022/05/26 04:05:23;;;;;;;13.60;3.30;;;;;;;13.00;100.00;101616.75;4985679;28;20189;-89
2022/05/26 04:07:48;;;;;;;16.43;4.30;;;;;;;13.24;100.00;101647.78;4981915;28;20220;-89
2022/05/26 04:10:14;;;;;;;10.30;3.20;;;;;;;13.55;100.00;101701.31;4984452;28;20197;-91
2022/05/26 04:12:42;;;;;;;11.30;3.10;;;;;;;13.50;100.00;101692.97;4999548;28;20272;-89
2022/05/26 04:15:08;;;;;;;13.20;3.10;;;;;;;13.63;100.00;101703.03;4996967;28;20194;-87
2022/05/26 04:17:35;;;;;;;11.63;3.00;;;;;;;13.30;100.00;101660.50;5001204;28;21156;-89
2022/05/26 04:20:00;;;;;;;13.97;3.03;;;;;;;13.60;100.00;101704.25;4988542;28;20960;-87
2022/05/26 04:22:26;;;;;;;12.53;3.07;;;;;;;13.11;100.00;101630.50;4983644;28;20444;-89
2022/05/26 04:24:55;;;;;;;7.23;2.77;;;;;;;13.65;100.00;101695.53;5000336;28;20610;-89
2022/05/26 04:27:23;;;;;;;10.90;2.63;;;;;;;13.47;100.00;101680.72;4983039;28;20220;-90
2022/05/26 04:29:48;;;;;;;9.80;2.70;;;;;;;13.00;100.00;101611.34;4986901;28;20456;-92
2022/05/26 04:32:15;;;;;;;9.07;2.20;;;;;;;13.67;100.00;101720.44;4983249;28;21037;-89
2022/05/26 04:34:40;;;;;;;11.10;2.80;;;;;;;13.60;100.00;101704.25;5002911;28;20531;-90
2022/05/26 04:37:06;;;;;;;5.63;2.33;;;;;;;13.50;100.00;101703.75;4983531;28;20436;-87
2022/05/26 04:39:32;;;;;;;9.57;2.30;;;;;;;13.24;100.00;101645.09;4985299;28;20468;-87
2022/05/26 04:42:00;;;;;;;11.27;2.43;;;;;;;13.63;100.00;101706.53;4983202;28;20472;-85
2022/05/26 04:44:30;;;;;;;12.60;2.60;;;;;;;13.75;100.00;101713.03;4983315;28;20542;-92
2022/05/26 04:46:55;;;;;;;12.67;2.13;;;;;;;12.97;100.00;101582.13;5001522;28;20440;-89
2022/05/26 04:49:21;;;;;;;9.83;2.43;;;;;;;13.53;100.00;101681.78;4988439;28;21293;-90
2022/05/26 04:51:46;;;;;;;6.63;2.07;;;;;;;13.65;100.00;101701.75;4988035;28;20222;-91
2022/05/26 04:54:11;;;;;;;10.47;2.20;;;;;;;13.68;100.00;101716.72;4988976;28;20264;-91
2022/05/26 04:56:37;;;;;;;14.70;2.50;;;;;;;13.52;100.00;101696.31;4987035;28;20224;-89
2022/05/26 04:59:04;;;;;;;8.60;1.93;;;;;;;13.71;100.00;101701.00;4985654;28;20182;-91
2022/05/26 05:01:30;;;;;;;9.93;2.00;;;;;;;13.63;100.00;101695.75;4987411;28;20647;-92
2022/05/26 05:03:55;;;;;;;11.40;2.27;;;;;;;13.71;100.00;101721.72;4988392;28;20432;-90
2022/05/26 05:06:21;;;;;;;10.60;1.80;;;;;;;13.43;100.00;101681.31;4985852;28;20194;-91
2022/05/26 05:08:46;;;;;;;8.53;2.23;;;;;;;12.74;100.00;101560.84;4989186;28;20210;-88
2022/05/26 05:11:12;;;;;;;9.60;2.00;;;;;;;13.64;100.00;101734.31;4983124;28;20213;-86
2022/05/26 05:13:38;;;;;;;9.53;2.23;;;;;;;13.76;100.00;101720.09;4991231;28;20188;-91
2022/05/26 05:16:10;;;;;;;7.57;2.00;;;;;;;13.78;100.00;101723.44;4991204;28;20186;-91
2022/05/26 05:18:35;;;;;;;12.47;2.50;;;;;;;13.12;100.00;101639.41;4990290;28;20577;-89
2022/05/26 05:21:06;;;;;;;6.80;2.20;;;;;;;13.86;100.00;101735.09;4993125;28;20456;-86
2022/05/26 05:23:37;;;;;;;11.87;1.93;;;;;;;13.31;100.00;101652.22;4991701;28;20638;-90
2022/05/26 05:26:03;;;;;;;8.40;2.20;;;;;;;13.68;100.00;101712.19;4991062;28;20968;-91
2022/05/26 05:28:33;;;;;;;5.73;1.70;;;;;;;13.52;100.00;101690.91;4989830;28;20464;-92
2022/05/26 05:31:05;;;;;;;4.90;1.60;;;;;;;13.83;100.00;101727.38;4991310;28;20855;-92
2022/05/26 05:33:42;;;;;;;8.17;2.17;;;;;;;13.91;100.00;101756.88;4989416;28;20432;-87
2022/05/26 05:36:14;;;;;;;10.87;1.80;;;;;;;13.98;100.00;101745.13;5005999;28;20452;-90
2022/05/26 05:38:40;;;;;;;8.20;2.27;;;;;;;13.15;100.00;101647.09;5003222;28;20525;-87
2022/05/26 05:41:11;;;;;;;5.53;1.90;;;;;;;13.86;100.00;101744.00;4990232;28;20538;-90
2022/05/26 05:43:37;;;;;;;8.10;2.23;;;;;;;13.81;100.00;101764.50;4988092;28;20459;-89
2022/05/26 05:46:04;;;;;;;6.90;1.70;;;;;;;13.91;100.00;101755.03;4986138;28;20441;-88
2022/05/26 05:48:30;;;;;;;9.40;2.13;;;;;;;13.75;100.00;101756.19;5005837;28;20464;-91
2022/05/26 05:50:55;;;;;;;6.97;1.70;;;;;;;14.06;100.00;101765.72;4992999;28;20477;-89
2022/05/26 05:53:21;;;;;;;8.77;1.53;;;;;;;13.79;100.00;101730.47;4989350;28;20193;-90
2022/05/26 05:55:47;;;;;;;7.23;1.97;;;;;;;14.02;100.00;101778.75;4984351;28;20344;-89
2022/05/26 05:58:12;;;;;;;7.83;2.50;;;;;;;13.49;100.00;101711.00;5003543;28;20198;-88
2022/05/26 06:00:40;;;;;;;9.40;1.57;;;;;;;13.94;100.00;101768.13;4998388;28;20238;-88
2022/05/26 06:03:06;;;;;;;8.00;1.70;;;;;;;13.82;100.00;101763.47;4987558;28;20252;-87
2022/05/26 06:05:31;;;;;;;7.40;2.10;;;;;;;13.87;100.00;101780.72;4988349;28;20452;-90
2022/05/26 06:07:57;;;;;;;5.07;1.53;;;;;;;13.40;100.00;101679.84;4989760;28;20199;-90
2022/05/26 06:10:23;;;;;;;6.63;1.53;;;;;;;14.20;100.00;101762.06;4987674;28;20214;-90
2022/05/26 06:12:48;;;;;;;11.33;2.37;;;;;;;13.52;100.00;101699.00;4988647;28;20237;-89
2022/05/26 06:15:14;;;;;;;6.90;1.70;;;;;;;13.57;100.00;101710.03;4988401;28;20440;-89
2022/05/26 06:17:39;;;;;;;9.90;1.90;;;;;;;13.82;100.00;101750.00;5001997;28;20566;-88
2022/05/26 06:20:06;;;;;;;9.60;2.00;;;;;;;14.24;100.00;101768.69;4981594;28;20236;-86
2022/05/26 06:22:32;;;;;;;4.20;1.47;;;;;;;14.27;100.00;101778.25;4985351;28;20280;-89
2022/05/26 06:24:58;;;;;;;6.57;1.77;;;;;;;13.80;100.00;101709.75;4988462;28;20499;-91
2022/05/26 06:30:14;;;;;;;5.67;1.70;;;;;;;14.35;100.00;101785.34;4982455;28;20217;-88
2022/05/26 06:38:19;;;;;;;8.67;1.80;;;;;;;13.90;100.00;101698.59;4988935;28;20439;-88
2022/05/26 06:40:45;;;;;;;9.70;1.77;;;;;;;14.56;100.00;101793.38;5001708;28;20468;-89
2022/05/26 06:43:10;;;;;;;6.13;1.43;;;;;;;14.33;100.00;101753.16;4987940;28;20451;-89
2022/05/26 06:45:36;;;;;;;6.23;1.43;;;;;;;14.67;100.00;101787.38;4984288;28;20240;-90
2022/05/26 06:48:03;;;;;;;3.67;1.33;;;;;;;14.74;100.00;101776.59;4984978;28;20197;-90
2022/05/26 06:50:28;;;;;;;5.20;1.43;;;;;;;14.65;100.00;101753.53;4984585;28;20481;-89
2022/05/26 06:52:54;;;;;;;3.83;1.33;;;;;;;14.65;100.00;101777.81;4988268;28;21234;-88
2022/05/26 06:55:20;;;;;;;7.97;1.57;;;;;;;14.56;100.00;101766.38;4985800;28;20650;-87
2022/05/26 06:57:45;;;;;;;5.13;1.70;;;;;;;14.61;100.00;101782.81;4981458;28;20449;-89
2022/05/26 07:00:12;;;;;;;6.50;1.33;;;;;;;14.28;100.00;101703.53;4983573;28;20216;-88
2022/05/26 07:02:38;;;;;;;9.00;1.70;;;;;;;14.35;100.00;101724.13;4984950;28;20562;-92
2022/05/26 07:05:04;;;;;;;11.43;1.90;;;;;;;13.96;100.00;101657.34;4983909;28;20437;-90
2022/05/26 07:07:32;;;;;;;8.30;1.90;;;;;;;14.81;100.00;101760.41;4977101;28;20208;-88
2022/05/26 07:09:58;;;;;;;13.13;4.53;;;;;;;14.94;100.00;101778.53;4988842;28;20878;-89
2022/05/26 07:12:24;;;;;;;5.83;2.00;;;;;;;14.94;100.00;101778.53;4987381;28;20571;-87
2022/05/26 07:14:50;;;;;;;7.27;1.83;;;;;;;14.86;100.00;101791.16;4985922;28;20448;-89
2022/05/26 07:17:15;;;;;;;7.27;1.43;;;;;;;14.90;100.00;101815.91;4987738;28;20185;-90
2022/05/26 07:19:42;;;;;;;9.77;1.60;;;;;;;14.31;100.00;101730.13;4982734;28;20507;-92
2022/05/26 07:22:08;;;;;;;7.87;1.80;;;;;;;14.51;100.00;101755.31;4997716;28;20217;-88
2022/05/26 07:24:34;;;;;;;6.90;1.93;;;;;;;14.87;100.00;101808.22;5000805;28;20521;-91
2022/05/26 07:27:00;;;;;;;5.13;1.00;;;;;;;14.59;100.00;101741.66;4987396;28;20532;-88
2022/05/26 07:29:26;;;;;;;11.90;2.27;;;;;;;15.14;100.00;101818.03;4983084;28;20465;-90
2022/05/26 07:31:52;;;;;;;9.57;1.70;;;;;;;15.22;100.00;101818.91;4977458;28;20474;-81
2022/05/26 07:34:18;;;;;;;4.30;1.60;;;;;;;14.72;100.00;101750.81;4981974;28;20808;-85
2022/05/26 07:42:15;;;;;;;4.50;1.17;;;;;;;14.86;100.00;101790.34;4979616;28;21012;-77
2022/05/26 07:44:45;;;;;;;7.57;1.53;;;;;;;14.57;100.00;101727.53;4983042;28;20443;-80
2022/05/26 07:47:11;;;;;;;3.30;1.07;;;;;;;14.90;100.00;101776.22;4980046;28;20447;-82
2022/05/26 07:49:40;;;;;;;5.83;1.40;;;;;;;14.96;100.00;101827.78;4979111;28;21451;-78
2022/05/26 07:52:06;;;;;;;6.73;1.50;;;;;;;14.42;100.00;101745.72;4980273;28;20861;-77
2022/05/26 07:54:31;;;;;;;7.97;1.50;;;;;;;14.83;100.00;101826.69;4982664;28;20544;-77
2022/05/26 07:56:58;;;;;;;4.83;1.80;;;;;;;14.85;100.00;101800.31;4983471;28;20941;-84
2022/05/26 07:59:24;;;;;;;3.80;1.33;;;;;;;15.09;100.00;101827.81;4995771;28;20326;-82
2022/05/26 08:01:52;;;;;;;5.13;1.40;;;;;;;14.79;100.00;101803.00;4978265;28;20473;-87
2022/05/26 08:04:18;;;;;;;7.63;1.83;;;;;;;14.99;100.00;101839.00;5012254;22;20242;-83
2022/05/26 08:06:46;;;;;;;4.23;1.17;;;;;;;15.08;100.00;101834.25;5011757;28;20443;-91
2022/05/26 08:09:16;;;;;;;3.57;1.23;;;;;;;15.14;100.00;101838.84;5018293;28;21058;-89
2022/05/26 08:11:42;;;;;;;6.83;1.63;;;;;;;15.05;100.00;101851.69;5017652;28;20447;-90
2022/05/26 08:14:07;;;;;;;3.20;1.10;;;;;;;15.15;100.00;101843.19;5002241;28;20985;-91
2022/05/26 08:16:34;;;;;;;3.33;1.17;;;;;;;15.40;100.00;101840.75;5010958;28;20261;-87
2022/05/26 08:18:59;;;;;;;9.33;1.23;;;;;;;15.56;100.00;101824.13;5016247;28;20667;-90
2022/05/26 08:21:25;;;;;;;10.40;1.53;;;;;;;15.00;100.00;101748.81;5021194;28;20456;-87
2022/05/26 08:23:52;;;;;;;6.57;1.40;;;;;;;15.00;100.00;101764.19;5024635;28;20618;-87
2022/05/26 08:26:17;;;;;;;3.30;1.13;;;;;;;14.76;100.00;101703.50;5011899;28;20187;-89
2022/05/26 08:28:43;;;;;;;7.60;2.50;;;;;;;15.68;100.00;101837.88;5012767;28;21023;-88
2022/05/26 08:31:10;;;;;;;8.20;1.77;;;;;;;15.81;100.00;101835.16;5016056;28;20214;-88
2022/05/26 08:33:37;;;;;;;5.80;1.40;;;;;;;15.67;100.00;101862.38;5043147;28;20183;-90
2022/05/26 08:36:06;;;;;;;5.63;1.13;;;;;;;15.61;100.00;101847.81;5036005;28;20446;-93
2022/05/26 08:38:32;;;;;;;9.57;1.53;;;;;;;15.53;100.00;101826.41;5018913;28;20469;-88
2022/05/26 08:40:57;;;;;;;3.73;1.30;;;;;;;15.34;100.00;101814.53;5046941;28;20466;-91
2022/05/26 08:43:37;;;;;;;3.37;1.10;;;;;;;15.29;100.00;101784.59;5030884;28;20284;-92
2022/05/26 08:46:07;;;;;;;4.43;1.40;;;;;;;15.73;100.00;101851.59;5027853;28;20215;-92
2022/05/26 08:48:42;;;;;;;3.50;1.30;;;;;;;15.32;100.00;101778.78;5024731;28;20474;-91
2022/05/26 08:51:13;;;;;;;5.17;1.40;;;;;;;15.58;100.00;101816.63;5042272;28;20840;-89
2022/05/26 08:53:40;;;;;;;13.77;2.60;;;;;;;15.80;100.00;101817.28;5028545;28;20438;-95
2022/05/26 08:56:11;;;;;;;7.20;1.30;;;;;;;15.99;100.00;101860.75;5025712;28;20442;-93
2022/05/26 08:58:47;;;;;;;3.60;1.20;;;;;;;16.05;100.00;101835.53;5018099;28;20497;-92
2022/05/26 09:01:18;;;;;;;7.30;1.40;;;;;;;15.79;100.00;101887.81;5024784;28;20448;-91
2022/05/26 09:03:43;;;;;;;3.90;1.33;;;;;;;15.71;100.00;101837.47;5027173;28;20489;-90
2022/05/26 09:06:16;;;;;;;1.60;0.80;;;;;;;15.89;100.00;101871.19;5024611;28;20488;-84
2022/05/26 09:14:41;;;;;;;4.40;1.10;;;;;;;15.98;100.00;101859.91;5044075;28;20758;-91
2022/05/26 09:17:08;;;;;;;4.63;1.63;;;;;;;15.89;100.00;101880.13;5044018;28;20441;-85
2022/05/26 09:19:42;;;;;;;3.80;1.27;;;;;;;16.07;100.00;101870.53;5028320;28;20449;-93
2022/05/26 09:22:40;;;;;;;2.30;0.97;;;;;;;16.36;100.00;101863.81;5020706;28;20442;-94
2022/05/26 09:25:10;;;;;;;4.80;1.33;;;;;;;16.44;100.00;101861.69;5012652;28;20469;-92
2022/05/26 09:27:37;;;;;;;4.93;1.37;;;;;;;16.07;100.00;101852.41;5029111;28;20434;-94
2022/05/26 09:30:31;;;;;;;3.43;1.23;;;;;;;16.04;100.00;101840.13;5005597;28;20473;-94
2022/05/26 09:32:57;;;;;;;4.27;0.93;;;;;;;16.47;100.00;101849.63;5027418;28;20445;-94
2022/05/26 09:35:34;;;;;;;5.40;1.17;;;;;;;16.76;100.00;101860.97;5026815;28;20466;-93
2022/05/26 09:38:02;;;;;;;6.23;0.90;;;;;;;16.30;100.00;101827.59;5024407;28;20434;-92
2022/05/26 09:40:36;;;;;;;4.70;1.20;;;;;;;16.41;100.00;101888.38;5026661;28;20447;-88
2022/05/26 09:43:09;;;;;;;2.00;0.87;;;;;;;16.19;100.00;101834.47;5031541;28;20444;-88
2022/05/26 09:45:45;;;;;;;5.90;1.10;;;;;;;16.56;100.00;101894.38;5017546;28;20446;-86
2022/05/26 09:48:32;;;;;;;2.90;1.00;;;;;;;16.48;100.00;101892.72;5035964;22;21151;-69
2022/05/26 09:51:07;;;;;;;2.90;1.37;;;;;;;16.54;100.00;101884.78;5008501;28;20818;-69
2022/05/26 09:53:38;;;;;;;3.30;1.27;;;;;;;16.31;100.00;101885.25;5011032;28;20787;-69
2022/05/26 09:56:04;;;;;;;5.07;1.30;;;;;;;16.22;100.00;101887.34;5011446;28;20439;-69
2022/05/26 09:58:34;;;;;;;4.50;1.30;;;;;;;16.19;100.00;101890.50;4994843;28;20447;-69
2022/05/26 10:01:06;;;;;;;2.67;1.00;;;;;;;16.32;100.00;101900.47;4990253;28;20463;-69
2022/05/26 10:03:34;;;;;;;4.83;0.90;;;;;;;16.19;100.00;101896.72;4989767;28;20498;-69
2022/05/26 10:06:17;;;;;;;4.00;1.10;;;;;;;16.39;100.00;101904.81;4993341;28;22819;-69
2022/05/26 10:08:58;;;;;;;4.13;1.10;;;;;;;16.53;100.00;101910.22;4996661;28;20463;-69
2022/05/26 10:11:48;;;;;;;4.50;1.30;;;;;;;16.41;100.00;101912.75;4997645;28;20461;-69
2022/05/26 10:14:31;;;;;;;4.17;1.07;;;;;;;16.45;100.00;101906.69;4998951;28;20987;-69
2022/05/26 10:17:10;;;;;;;4.17;1.17;;;;;;;16.71;100.00;101907.66;4999898;28;20970;-69
2022/05/26 10:19:50;;;;;;;5.60;1.43;;;;;;;16.60;100.00;101916.44;5006752;28;20434;-69
2022/05/26 10:22:34;;;;;;;4.40;1.50;;;;;;;16.61;100.00;101918.13;5006016;28;20439;-69
2022/05/26 10:28:14;;;;;;;4.17;0.90;;;;;;;16.66;100.00;101904.75;5001156;28;20487;-89
2022/05/26 10:31:15;;;;;;;5.28;1.60;;;;;;;16.43;100.00;101880.84;5008706;28;20518;-86
2022/05/26 10:34:17;;;;;;;7.43;1.47;;;;;;;16.31;100.00;101856.31;5007635;28;20188;-78
2022/05/26 10:36:57;;;;;;;3.17;1.07;;;;;;;16.58;100.00;101896.88;4996827;28;20448;-84
2022/05/26 10:39:44;;;;;;;4.67;1.53;;;;;;;16.67;100.00;101880.16;5003504;28;20416;-85
2022/05/26 10:42:27;;;;;;;7.50;1.27;;;;;;;16.48;100.00;101865.63;5002871;28;20415;-90
2022/05/26 10:44:59;;;;;;;5.17;1.63;;;;;;;16.67;100.00;101901.00;5020018;28;20514;-87
2022/05/26 10:47:34;;;;;;;6.60;1.10;;;;;;;16.66;100.00;101902.91;5005237;28;20715;-85
2022/05/26 10:50:12;;;;;;;3.20;1.30;;;;;;;16.74;100.00;101896.38;5003529;28;20497;-89
2022/05/26 10:52:46;;;;;;;2.30;1.20;;;;;;;16.46;100.00;101856.91;5007575;28;20956;-88
2022/05/26 10:55:17;;;;;;;3.10;1.27;;;;;;;16.58;100.00;101864.38;4997563;28;20495;-85
2022/05/26 10:57:53;;;;;;;2.20;1.00;;;;;;;16.53;100.00;101837.09;5001827;28;20525;-87
2022/05/26 11:00:23;;;;;;;2.17;0.90;;;;;;;16.77;100.00;101863.47;5003713;28;20993;-84
2022/05/26 11:03:10;;;;;;;2.40;0.90;;;;;;;17.15;100.00;101892.47;5001749;28;20542;-85
2022/05/26 11:05:58;;;;;;;3.33;0.90;;;;;;;17.34;100.00;101882.59;4998797;28;20834;-84
2022/05/26 11:08:36;;;;;;;3.20;1.10;;;;;;;17.76;100.00;101886.47;5006049;28;20440;-85
2022/05/26 11:11:04;;;;;;;3.57;0.87;;;;;;;17.39;100.00;101904.47;5003721;28;20436;-87
2022/05/26 11:13:32;;;;;;;4.93;1.30;;;;;;;17.34;100.00;101877.97;5002227;28;21035;-76
2022/05/26 11:18:54;;;;;;;6.67;1.10;;;;;;;16.60;100.00;101808.09;5002355;28;20450;-84
2022/05/26 11:21:21;;;;;;;3.07;0.90;;;;;;;16.58;100.00;101829.16;5003980;28;20451;-80
2022/05/26 11:23:49;;;;;;;5.60;1.10;;;;;;;16.50;100.00;101803.16;5015092;28;20472;-86
2022/05/26 11:26:42;;;;;;;1.83;0.90;;;;;;;17.25;100.00;101881.19;5003030;28;20971;-80
2022/05/26 11:29:45;;;;;;;2.73;1.00;;;;;;;17.45;100.00;101871.03;4999829;28;21082;-86
2022/05/26 11:38:28;;;;;;;4.87;1.00;;;;;;;17.15;100.00;101854.53;5000550;28;20434;-89
2022/05/26 11:41:00;;;;;;;4.93;1.30;;;;;;;17.21;100.00;101869.91;5001330;28;20443;-91
2022/05/26 11:43:29;;;;;;;6.37;2.10;;;;;;;16.97;100.00;101871.53;5000168;28;20836;-90
2022/05/26 11:45:55;;;;;;;7.13;3.50;;;;;;;16.95;100.00;101849.22;4993767;28;20462;-75
2022/05/26 11:48:33;;;;;;;6.67;1.10;;;;;;;17.46;100.00;101880.00;4991306;28;20443;-74
2022/05/26 11:51:27;;;;;;;9.60;1.60;;;;;;;17.63;100.00;101870.28;4992260;28;20447;-73
2022/05/26 11:53:53;;;;;;;4.43;1.27;;;;;;;16.79;100.00;101779.28;4985543;28;20563;-73
2022/05/26 11:56:25;;;;;;;3.60;1.20;;;;;;;17.36;100.00;101864.22;4991324;28;21085;-73
2022/05/26 11:59:18;;;;;;;3.30;1.30;;;;;;;17.43;100.00;101875.84;4987951;28;20599;-74
2022/05/26 12:01:59;;;;;;;5.87;1.43;;;;;;;17.72;100.00;101874.38;5010606;28;20439;-86
2022/05/26 12:04:30;;;;;;;6.60;1.33;;;;;;;17.56;100.00;101864.91;4993523;28;20456;-85
2022/05/26 12:06:59;;;;;;;3.43;1.20;;;;;;;17.52;100.00;101868.28;4993954;28;20436;-70
2022/05/26 12:09:43;;;;;;;5.73;1.40;;;;;;;17.51;100.00;101866.63;4993610;28;20511;-70
2022/05/26 12:12:17;;;;;;;4.23;1.00;;;;;;;17.04;100.00;101868.78;4994796;28;20876;-73